Astoria, South Dakota
Current Conditions -  °F | °C
As of 6:13 PM on Wednesday 22 Oct 2014 (Local Time) from KCNB Reporting Station
Moderate Rain Moderate Rain  
Wind Chill: 60°   Ceiling: 9000
Heat Index: 60°   Visibility: 7mi
Dew Point: 57°   Wind: 8mph
Humidity: 88%   Direction: 230°SW
Pressure: 29.93"   Gusts: NA
Location:  44.56°N, 96.55°W
Report Text: KCNB 222313Z AUTO 23007KT 7SM RA SCT030 SCT044 OVC090 16/14 A2993 RMK AO2 P0001 T01570138
Loading
Personal Weather Stations






























Interactive Weather Map New forecast layout! Learn more

10-Day Weather Forecast

Advertisements
Track Severe Weather on mobile